sensor_id;sensor_type;location;lat;lon;timestamp;P1;durP1;ratioP1;P2;durP2;ratioP2
18596;SDS011;9428;50.950;6.912;2024-02-26T00:00:45;4.75;;;2.22;;
18596;SDS011;9428;50.950;6.912;2024-02-26T00:03:32;6.10;;;2.22;;
18596;SDS011;9428;50.950;6.912;2024-02-26T00:06:21;2.80;;;1.88;;
18596;SDS011;9428;50.950;6.912;2024-02-26T00:09:10;3.42;;;1.38;;
18596;SDS011;9428;50.950;6.912;2024-02-26T00:11:57;2.63;;;1.60;;
18596;SDS011;9428;50.950;6.912;2024-02-26T00:14:46;1.73;;;1.30;;
18596;SDS011;9428;50.950;6.912;2024-02-26T00:17:35;1.63;;;1.20;;
18596;SDS011;9428;50.950;6.912;2024-02-26T00:20:22;3.15;;;1.83;;
18596;SDS011;9428;50.950;6.912;2024-02-26T00:23:09;2.42;;;1.60;;
18596;SDS011;9428;50.950;6.912;2024-02-26T00:25:57;2.13;;;1.40;;
18596;SDS011;9428;50.950;6.912;2024-02-26T00:28:44;2.55;;;1.50;;
18596;SDS011;9428;50.950;6.912;2024-02-26T00:31:33;1.90;;;1.08;;
18596;SDS011;9428;50.950;6.912;2024-02-26T00:34:20;1.67;;;1.13;;
18596;SDS011;9428;50.950;6.912;2024-02-26T00:37:07;1.30;;;1.10;;
18596;SDS011;9428;50.950;6.912;2024-02-26T00:39:55;3.42;;;1.55;;
18596;SDS011;9428;50.950;6.912;2024-02-26T00:42:42;1.90;;;0.98;;
18596;SDS011;9428;50.950;6.912;2024-02-26T00:45:31;1.80;;;1.25;;
18596;SDS011;9428;50.950;6.912;2024-02-26T00:48:20;1.38;;;1.02;;
18596;SDS011;9428;50.950;6.912;2024-02-26T00:51:07;2.22;;;1.13;;
18596;SDS011;9428;50.950;6.912;2024-02-26T00:53:54;1.30;;;1.02;;
18596;SDS011;9428;50.950;6.912;2024-02-26T00:56:42;2.27;;;0.90;;
18596;SDS011;9428;50.950;6.912;2024-02-26T00:59:29;1.08;;;0.98;;
18596;SDS011;9428;50.950;6.912;2024-02-26T01:02:17;4.22;;;1.42;;
18596;SDS011;9428;50.950;6.912;2024-02-26T01:05:06;1.80;;;1.13;;
18596;SDS011;9428;50.950;6.912;2024-02-26T01:07:54;1.42;;;1.15;;
18596;SDS011;9428;50.950;6.912;2024-02-26T01:10:42;1.23;;;1.00;;
18596;SDS011;9428;50.950;6.912;2024-02-26T01:13:29;0.90;;;0.88;;
18596;SDS011;9428;50.950;6.912;2024-02-26T01:16:16;0.93;;;0.80;;
18596;SDS011;9428;50.950;6.912;2024-02-26T01:19:05;1.60;;;1.00;;
18596;SDS011;9428;50.950;6.912;2024-02-26T01:21:54;1.63;;;1.10;;
18596;SDS011;9428;50.950;6.912;2024-02-26T01:24:41;1.20;;;0.87;;
18596;SDS011;9428;50.950;6.912;2024-02-26T01:27:28;1.50;;;0.90;;
18596;SDS011;9428;50.950;6.912;2024-02-26T01:30:16;1.33;;;1.00;;
18596;SDS011;9428;50.950;6.912;2024-02-26T01:33:03;1.80;;;1.00;;
18596;SDS011;9428;50.950;6.912;2024-02-26T01:35:51;2.23;;;1.03;;
18596;SDS011;9428;50.950;6.912;2024-02-26T01:38:40;2.53;;;1.10;;
18596;SDS011;9428;50.950;6.912;2024-02-26T01:41:27;2.73;;;1.10;;
18596;SDS011;9428;50.950;6.912;2024-02-26T01:44:15;3.23;;;0.90;;
18596;SDS011;9428;50.950;6.912;2024-02-26T01:47:02;2.80;;;0.93;;
18596;SDS011;9428;50.950;6.912;2024-02-26T01:49:51;2.00;;;1.00;;
18596;SDS011;9428;50.950;6.912;2024-02-26T01:52:39;1.57;;;1.00;;
18596;SDS011;9428;50.950;6.912;2024-02-26T01:55:28;2.13;;;1.00;;
18596;SDS011;9428;50.950;6.912;2024-02-26T01:58:16;0.90;;;0.80;;
18596;SDS011;9428;50.950;6.912;2024-02-26T02:01:03;1.20;;;0.82;;
18596;SDS011;9428;50.950;6.912;2024-02-26T02:03:51;2.42;;;1.00;;
18596;SDS011;9428;50.950;6.912;2024-02-26T02:06:40;2.00;;;1.03;;
18596;SDS011;9428;50.950;6.912;2024-02-26T02:09:29;1.23;;;0.87;;
18596;SDS011;9428;50.950;6.912;2024-02-26T02:12:18;1.67;;;1.03;;
18596;SDS011;9428;50.950;6.912;2024-02-26T02:15:06;1.47;;;1.03;;
18596;SDS011;9428;50.950;6.912;2024-02-26T02:17:54;1.80;;;1.00;;
18596;SDS011;9428;50.950;6.912;2024-02-26T02:20:43;1.10;;;0.73;;
18596;SDS011;9428;50.950;6.912;2024-02-26T02:23:30;1.37;;;0.90;;
18596;SDS011;9428;50.950;6.912;2024-02-26T02:26:18;2.47;;;0.80;;
18596;SDS011;9428;50.950;6.912;2024-02-26T02:29:06;0.70;;;0.70;;
18596;SDS011;9428;50.950;6.912;2024-02-26T02:31:54;1.10;;;0.80;;
18596;SDS011;9428;50.950;6.912;2024-02-26T02:34:43;2.23;;;0.90;;
18596;SDS011;9428;50.950;6.912;2024-02-26T02:37:32;0.80;;;0.80;;
18596;SDS011;9428;50.950;6.912;2024-02-26T02:40:19;3.73;;;0.90;;
18596;SDS011;9428;50.950;6.912;2024-02-26T02:43:07;3.60;;;1.00;;
18596;SDS011;9428;50.950;6.912;2024-02-26T02:45:54;1.05;;;0.80;;
18596;SDS011;9428;50.950;6.912;2024-02-26T02:48:42;1.48;;;1.10;;
18596;SDS011;9428;50.950;6.912;2024-02-26T02:51:29;2.13;;;0.90;;
18596;SDS011;9428;50.950;6.912;2024-02-26T02:54:21;1.33;;;1.03;;
18596;SDS011;9428;50.950;6.912;2024-02-26T02:57:08;2.80;;;1.10;;
18596;SDS011;9428;50.950;6.912;2024-02-26T02:59:56;1.05;;;0.93;;
18596;SDS011;9428;50.950;6.912;2024-02-26T03:02:43;0.80;;;0.80;;
18596;SDS011;9428;50.950;6.912;2024-02-26T03:05:31;1.30;;;1.07;;
18596;SDS011;9428;50.950;6.912;2024-02-26T03:08:19;1.50;;;0.90;;
18596;SDS011;9428;50.950;6.912;2024-02-26T03:11:07;0.87;;;0.80;;
18596;SDS011;9428;50.950;6.912;2024-02-26T03:13:59;2.27;;;1.10;;
18596;SDS011;9428;50.950;6.912;2024-02-26T03:16:46;1.63;;;1.00;;
18596;SDS011;9428;50.950;6.912;2024-02-26T03:19:34;1.35;;;0.90;;
18596;SDS011;9428;50.950;6.912;2024-02-26T03:22:21;1.47;;;0.87;;
18596;SDS011;9428;50.950;6.912;2024-02-26T03:25:08;3.03;;;1.07;;
18596;SDS011;9428;50.950;6.912;2024-02-26T03:27:57;1.47;;;0.80;;
18596;SDS011;9428;50.950;6.912;2024-02-26T03:30:45;2.87;;;0.90;;
18596;SDS011;9428;50.950;6.912;2024-02-26T03:33:32;1.42;;;0.90;;
18596;SDS011;9428;50.950;6.912;2024-02-26T03:36:19;2.03;;;1.05;;
18596;SDS011;9428;50.950;6.912;2024-02-26T03:39:07;1.20;;;0.80;;
18596;SDS011;9428;50.950;6.912;2024-02-26T03:41:54;1.57;;;0.90;;
18596;SDS011;9428;50.950;6.912;2024-02-26T03:44:43;4.50;;;0.90;;
18596;SDS011;9428;50.950;6.912;2024-02-26T03:47:31;2.70;;;1.00;;
18596;SDS011;9428;50.950;6.912;2024-02-26T03:50:18;1.80;;;1.07;;
18596;SDS011;9428;50.950;6.912;2024-02-26T03:53:05;6.47;;;1.10;;
18596;SDS011;9428;50.950;6.912;2024-02-26T03:55:54;1.33;;;0.90;;
18596;SDS011;9428;50.950;6.912;2024-02-26T03:58:42;1.20;;;0.70;;
18596;SDS011;9428;50.950;6.912;2024-02-26T04:01:31;1.17;;;0.80;;
18596;SDS011;9428;50.950;6.912;2024-02-26T04:04:19;1.70;;;0.90;;
18596;SDS011;9428;50.950;6.912;2024-02-26T04:07:06;2.67;;;1.00;;
18596;SDS011;9428;50.950;6.912;2024-02-26T04:09:54;1.53;;;0.80;;
18596;SDS011;9428;50.950;6.912;2024-02-26T04:12:41;0.87;;;0.80;;
18596;SDS011;9428;50.950;6.912;2024-02-26T04:15:29;1.13;;;0.93;;
18596;SDS011;9428;50.950;6.912;2024-02-26T04:18:18;1.43;;;0.90;;
18596;SDS011;9428;50.950;6.912;2024-02-26T04:21:05;1.27;;;0.90;;
18596;SDS011;9428;50.950;6.912;2024-02-26T04:23:53;1.50;;;0.93;;
18596;SDS011;9428;50.950;6.912;2024-02-26T04:26:41;4.00;;;1.00;;
18596;SDS011;9428;50.950;6.912;2024-02-26T04:29:28;2.22;;;1.30;;
18596;SDS011;9428;50.950;6.912;2024-02-26T04:32:16;1.17;;;0.97;;
18596;SDS011;9428;50.950;6.912;2024-02-26T04:35:05;1.63;;;1.20;;
18596;SDS011;9428;50.950;6.912;2024-02-26T04:37:53;3.23;;;1.30;;
18596;SDS011;9428;50.950;6.912;2024-02-26T04:40:40;3.10;;;1.33;;
18596;SDS011;9428;50.950;6.912;2024-02-26T04:43:37;2.03;;;1.00;;
18596;SDS011;9428;50.950;6.912;2024-02-26T04:46:26;2.73;;;1.20;;
18596;SDS011;9428;50.950;6.912;2024-02-26T04:49:23;1.17;;;0.90;;
18596;SDS011;9428;50.950;6.912;2024-02-26T04:52:12;2.03;;;1.07;;
18596;SDS011;9428;50.950;6.912;2024-02-26T04:55:00;2.73;;;1.37;;
18596;SDS011;9428;50.950;6.912;2024-02-26T04:57:47;1.47;;;1.13;;
18596;SDS011;9428;50.950;6.912;2024-02-26T05:00:35;1.17;;;1.07;;
18596;SDS011;9428;50.950;6.912;2024-02-26T05:03:22;1.63;;;1.33;;
18596;SDS011;9428;50.950;6.912;2024-02-26T05:06:09;2.30;;;1.60;;
18596;SDS011;9428;50.950;6.912;2024-02-26T05:09:00;3.20;;;1.10;;
18596;SDS011;9428;50.950;6.912;2024-02-26T05:11:48;2.30;;;1.40;;
18596;SDS011;9428;50.950;6.912;2024-02-26T05:14:36;4.37;;;1.33;;
18596;SDS011;9428;50.950;6.912;2024-02-26T05:17:23;2.10;;;1.30;;
18596;SDS011;9428;50.950;6.912;2024-02-26T05:20:11;5.43;;;1.47;;
18596;SDS011;9428;50.950;6.912;2024-02-26T05:23:00;1.67;;;1.10;;
18596;SDS011;9428;50.950;6.912;2024-02-26T05:25:50;1.37;;;1.27;;
18596;SDS011;9428;50.950;6.912;2024-02-26T05:28:37;2.10;;;1.20;;
18596;SDS011;9428;50.950;6.912;2024-02-26T05:31:25;3.30;;;1.63;;
18596;SDS011;9428;50.950;6.912;2024-02-26T05:34:14;1.87;;;1.60;;
18596;SDS011;9428;50.950;6.912;2024-02-26T05:37:04;1.77;;;1.30;;
18596;SDS011;9428;50.950;6.912;2024-02-26T05:39:52;3.33;;;1.27;;
18596;SDS011;9428;50.950;6.912;2024-02-26T05:42:41;1.77;;;1.43;;
18596;SDS011;9428;50.950;6.912;2024-02-26T05:45:30;2.33;;;1.60;;
18596;SDS011;9428;50.950;6.912;2024-02-26T05:48:19;2.90;;;1.40;;
18596;SDS011;9428;50.950;6.912;2024-02-26T05:51:06;5.53;;;1.73;;
18596;SDS011;9428;50.950;6.912;2024-02-26T05:53:54;4.13;;;1.33;;
18596;SDS011;9428;50.950;6.912;2024-02-26T05:56:41;4.80;;;1.20;;
18596;SDS011;9428;50.950;6.912;2024-02-26T05:59:30;1.60;;;1.20;;
18596;SDS011;9428;50.950;6.912;2024-02-26T06:02:17;2.37;;;1.20;;
18596;SDS011;9428;50.950;6.912;2024-02-26T06:05:05;2.90;;;1.40;;
18596;SDS011;9428;50.950;6.912;2024-02-26T06:07:54;2.20;;;1.53;;
18596;SDS011;9428;50.950;6.912;2024-02-26T06:10:41;2.70;;;1.43;;
18596;SDS011;9428;50.950;6.912;2024-02-26T06:13:29;3.67;;;1.77;;
18596;SDS011;9428;50.950;6.912;2024-02-26T06:16:18;2.77;;;1.57;;
18596;SDS011;9428;50.950;6.912;2024-02-26T06:19:05;2.43;;;1.60;;
18596;SDS011;9428;50.950;6.912;2024-02-26T06:21:52;1.83;;;1.50;;
18596;SDS011;9428;50.950;6.912;2024-02-26T06:24:40;2.53;;;1.40;;
18596;SDS011;9428;50.950;6.912;2024-02-26T06:27:27;4.13;;;1.70;;
18596;SDS011;9428;50.950;6.912;2024-02-26T06:30:15;2.97;;;1.80;;
18596;SDS011;9428;50.950;6.912;2024-02-26T06:33:03;3.53;;;2.00;;
18596;SDS011;9428;50.950;6.912;2024-02-26T06:35:51;4.17;;;2.00;;
18596;SDS011;9428;50.950;6.912;2024-02-26T06:38:39;2.73;;;1.90;;
18596;SDS011;9428;50.950;6.912;2024-02-26T06:41:26;1.93;;;1.70;;
18596;SDS011;9428;50.950;6.912;2024-02-26T06:44:15;3.37;;;1.90;;
18596;SDS011;9428;50.950;6.912;2024-02-26T06:47:02;2.93;;;2.00;;
18596;SDS011;9428;50.950;6.912;2024-02-26T06:49:51;6.03;;;1.90;;
18596;SDS011;9428;50.950;6.912;2024-02-26T06:52:39;4.77;;;2.20;;
18596;SDS011;9428;50.950;6.912;2024-02-26T06:55:26;4.00;;;1.90;;
18596;SDS011;9428;50.950;6.912;2024-02-26T06:58:13;4.10;;;2.50;;
18596;SDS011;9428;50.950;6.912;2024-02-26T07:01:01;3.67;;;2.57;;
18596;SDS011;9428;50.950;6.912;2024-02-26T07:03:48;2.47;;;1.90;;
18596;SDS011;9428;50.950;6.912;2024-02-26T07:06:37;5.70;;;2.30;;
18596;SDS011;9428;50.950;6.912;2024-02-26T07:09:24;4.47;;;2.50;;
18596;SDS011;9428;50.950;6.912;2024-02-26T07:12:12;4.10;;;2.53;;
18596;SDS011;9428;50.950;6.912;2024-02-26T07:15:00;3.73;;;2.60;;
18596;SDS011;9428;50.950;6.912;2024-02-26T07:17:48;3.60;;;2.20;;
18596;SDS011;9428;50.950;6.912;2024-02-26T07:20:35;3.77;;;2.30;;
18596;SDS011;9428;50.950;6.912;2024-02-26T07:23:24;2.63;;;2.10;;
18596;SDS011;9428;50.950;6.912;2024-02-26T07:26:11;2.93;;;2.37;;
18596;SDS011;9428;50.950;6.912;2024-02-26T07:28:58;3.20;;;2.13;;
18596;SDS011;9428;50.950;6.912;2024-02-26T07:31:46;3.90;;;2.20;;
18596;SDS011;9428;50.950;6.912;2024-02-26T07:34:36;3.87;;;2.20;;
18596;SDS011;9428;50.950;6.912;2024-02-26T07:37:27;3.67;;;2.23;;
18596;SDS011;9428;50.950;6.912;2024-02-26T07:40:16;2.47;;;2.00;;
18596;SDS011;9428;50.950;6.912;2024-02-26T07:43:10;3.73;;;2.40;;
18596;SDS011;9428;50.950;6.912;2024-02-26T07:46:00;3.27;;;2.13;;
18596;SDS011;9428;50.950;6.912;2024-02-26T07:48:50;3.50;;;2.20;;
18596;SDS011;9428;50.950;6.912;2024-02-26T07:51:37;4.07;;;2.27;;
18596;SDS011;9428;50.950;6.912;2024-02-26T07:54:27;4.60;;;2.10;;
18596;SDS011;9428;50.950;6.912;2024-02-26T07:57:16;3.40;;;2.20;;
18596;SDS011;9428;50.950;6.912;2024-02-26T08:00:04;2.17;;;1.63;;
18596;SDS011;9428;50.950;6.912;2024-02-26T08:02:53;3.17;;;1.90;;
18596;SDS011;9428;50.950;6.912;2024-02-26T08:05:40;3.17;;;2.20;;
18596;SDS011;9428;50.950;6.912;2024-02-26T08:08:28;2.97;;;2.30;;
18596;SDS011;9428;50.950;6.912;2024-02-26T08:11:16;3.53;;;2.10;;
18596;SDS011;9428;50.950;6.912;2024-02-26T08:14:04;4.37;;;2.00;;
18596;SDS011;9428;50.950;6.912;2024-02-26T08:16:52;5.70;;;2.33;;
18596;SDS011;9428;50.950;6.912;2024-02-26T08:19:39;3.93;;;2.40;;
18596;SDS011;9428;50.950;6.912;2024-02-26T08:22:27;3.23;;;1.90;;
18596;SDS011;9428;50.950;6.912;2024-02-26T08:25:14;10.53;;;2.10;;
18596;SDS011;9428;50.950;6.912;2024-02-26T08:28:02;3.80;;;2.13;;
18596;SDS011;9428;50.950;6.912;2024-02-26T08:30:54;4.27;;;1.93;;
18596;SDS011;9428;50.950;6.912;2024-02-26T08:33:41;4.43;;;2.10;;
18596;SDS011;9428;50.950;6.912;2024-02-26T08:36:29;3.73;;;2.13;;
18596;SDS011;9428;50.950;6.912;2024-02-26T08:39:17;9.63;;;2.43;;
18596;SDS011;9428;50.950;6.912;2024-02-26T08:42:04;4.67;;;2.20;;
18596;SDS011;9428;50.950;6.912;2024-02-26T08:44:52;6.20;;;2.00;;
18596;SDS011;9428;50.950;6.912;2024-02-26T08:47:41;2.70;;;1.80;;
18596;SDS011;9428;50.950;6.912;2024-02-26T08:50:31;4.93;;;1.93;;
18596;SDS011;9428;50.950;6.912;2024-02-26T08:53:18;3.77;;;1.87;;
18596;SDS011;9428;50.950;6.912;2024-02-26T08:56:06;3.67;;;2.27;;
18596;SDS011;9428;50.950;6.912;2024-02-26T08:58:53;6.73;;;2.43;;
18596;SDS011;9428;50.950;6.912;2024-02-26T09:01:42;2.70;;;2.17;;
18596;SDS011;9428;50.950;6.912;2024-02-26T09:04:32;4.17;;;2.40;;
18596;SDS011;9428;50.950;6.912;2024-02-26T09:07:19;7.47;;;3.00;;
18596;SDS011;9428;50.950;6.912;2024-02-26T09:10:07;4.00;;;2.73;;
18596;SDS011;9428;50.950;6.912;2024-02-26T09:12:55;4.83;;;2.30;;
18596;SDS011;9428;50.950;6.912;2024-02-26T09:15:43;3.20;;;2.30;;
18596;SDS011;9428;50.950;6.912;2024-02-26T09:18:30;3.07;;;2.37;;
18596;SDS011;9428;50.950;6.912;2024-02-26T09:21:19;3.23;;;2.17;;
18596;SDS011;9428;50.950;6.912;2024-02-26T09:24:09;3.10;;;2.30;;
18596;SDS011;9428;50.950;6.912;2024-02-26T09:26:56;3.70;;;2.10;;
18596;SDS011;9428;50.950;6.912;2024-02-26T09:29:43;5.43;;;2.30;;
18596;SDS011;9428;50.950;6.912;2024-02-26T09:32:31;5.93;;;3.00;;
18596;SDS011;9428;50.950;6.912;2024-02-26T09:35:19;4.10;;;2.77;;
18596;SDS011;9428;50.950;6.912;2024-02-26T09:38:08;2.77;;;2.00;;
18596;SDS011;9428;50.950;6.912;2024-02-26T09:40:55;4.20;;;2.47;;
18596;SDS011;9428;50.950;6.912;2024-02-26T09:43:44;4.97;;;2.40;;
18596;SDS011;9428;50.950;6.912;2024-02-26T09:46:32;4.70;;;2.93;;
18596;SDS011;9428;50.950;6.912;2024-02-26T09:49:20;5.73;;;2.67;;
18596;SDS011;9428;50.950;6.912;2024-02-26T09:52:10;5.23;;;2.80;;
18596;SDS011;9428;50.950;6.912;2024-02-26T09:54:59;4.93;;;3.20;;
18596;SDS011;9428;50.950;6.912;2024-02-26T09:57:48;4.77;;;2.60;;
18596;SDS011;9428;50.950;6.912;2024-02-26T10:00:38;7.53;;;3.00;;
18596;SDS011;9428;50.950;6.912;2024-02-26T10:03:28;20.43;;;4.27;;
18596;SDS011;9428;50.950;6.912;2024-02-26T10:06:19;29.90;;;4.77;;
18596;SDS011;9428;50.950;6.912;2024-02-26T10:09:07;6.27;;;2.63;;
18596;SDS011;9428;50.950;6.912;2024-02-26T10:11:57;9.10;;;2.90;;
18596;SDS011;9428;50.950;6.912;2024-02-26T10:14:45;5.73;;;2.97;;
18596;SDS011;9428;50.950;6.912;2024-02-26T10:17:32;5.90;;;2.87;;
18596;SDS011;9428;50.950;6.912;2024-02-26T10:20:22;5.85;;;2.83;;
18596;SDS011;9428;50.950;6.912;2024-02-26T10:23:12;10.10;;;2.80;;
18596;SDS011;9428;50.950;6.912;2024-02-26T10:25:59;5.67;;;2.70;;
18596;SDS011;9428;50.950;6.912;2024-02-26T10:28:48;9.13;;;3.67;;
18596;SDS011;9428;50.950;6.912;2024-02-26T10:31:35;9.77;;;3.50;;
18596;SDS011;9428;50.950;6.912;2024-02-26T10:34:22;6.37;;;3.30;;
18596;SDS011;9428;50.950;6.912;2024-02-26T10:37:11;8.45;;;2.90;;
18596;SDS011;9428;50.950;6.912;2024-02-26T10:39:59;10.33;;;2.77;;
18596;SDS011;9428;50.950;6.912;2024-02-26T10:42:46;14.57;;;3.53;;
18596;SDS011;9428;50.950;6.912;2024-02-26T10:45:36;3.50;;;2.63;;
18596;SDS011;9428;50.950;6.912;2024-02-26T10:48:27;4.27;;;3.37;;
18596;SDS011;9428;50.950;6.912;2024-02-26T10:51:14;4.80;;;3.00;;
18596;SDS011;9428;50.950;6.912;2024-02-26T10:54:02;8.15;;;3.65;;
18596;SDS011;9428;50.950;6.912;2024-02-26T10:56:53;5.60;;;2.67;;
18596;SDS011;9428;50.950;6.912;2024-02-26T10:59:42;3.20;;;2.50;;
18596;SDS011;9428;50.950;6.912;2024-02-26T11:02:34;6.07;;;2.80;;
18596;SDS011;9428;50.950;6.912;2024-02-26T11:05:22;6.82;;;3.13;;
18596;SDS011;9428;50.950;6.912;2024-02-26T11:08:10;6.10;;;3.13;;
18596;SDS011;9428;50.950;6.912;2024-02-26T11:10:58;3.93;;;3.07;;
18596;SDS011;9428;50.950;6.912;2024-02-26T11:13:47;7.18;;;2.60;;
18596;SDS011;9428;50.950;6.912;2024-02-26T11:16:36;6.63;;;3.35;;
18596;SDS011;9428;50.950;6.912;2024-02-26T11:19:27;5.80;;;3.35;;
18596;SDS011;9428;50.950;6.912;2024-02-26T11:22:17;8.10;;;3.30;;
18596;SDS011;9428;50.950;6.912;2024-02-26T11:25:04;8.43;;;3.30;;
18596;SDS011;9428;50.950;6.912;2024-02-26T11:27:54;6.63;;;3.20;;
18596;SDS011;9428;50.950;6.912;2024-02-26T11:30:45;4.60;;;2.92;;
18596;SDS011;9428;50.950;6.912;2024-02-26T11:33:34;7.43;;;3.35;;
18596;SDS011;9428;50.950;6.912;2024-02-26T11:36:24;5.72;;;3.63;;
18596;SDS011;9428;50.950;6.912;2024-02-26T11:39:12;3.47;;;2.38;;
18596;SDS011;9428;50.950;6.912;2024-02-26T11:42:04;6.63;;;2.97;;
18596;SDS011;9428;50.950;6.912;2024-02-26T11:44:53;6.90;;;2.55;;
18596;SDS011;9428;50.950;6.912;2024-02-26T11:47:41;5.95;;;2.95;;
18596;SDS011;9428;50.950;6.912;2024-02-26T11:50:35;5.88;;;3.58;;
18596;SDS011;9428;50.950;6.912;2024-02-26T11:53:25;6.32;;;3.28;;
18596;SDS011;9428;50.950;6.912;2024-02-26T11:56:19;6.30;;;2.70;;
18596;SDS011;9428;50.950;6.912;2024-02-26T11:59:09;3.45;;;2.55;;
18596;SDS011;9428;50.950;6.912;2024-02-26T12:01:58;8.82;;;3.00;;
18596;SDS011;9428;50.950;6.912;2024-02-26T12:04:45;6.90;;;3.67;;
18596;SDS011;9428;50.950;6.912;2024-02-26T12:07:34;6.97;;;4.23;;
18596;SDS011;9428;50.950;6.912;2024-02-26T12:10:26;4.43;;;3.00;;
18596;SDS011;9428;50.950;6.912;2024-02-26T12:13:14;6.83;;;3.10;;
18596;SDS011;9428;50.950;6.912;2024-02-26T12:16:03;6.15;;;3.33;;
18596;SDS011;9428;50.950;6.912;2024-02-26T12:18:51;7.97;;;2.72;;
18596;SDS011;9428;50.950;6.912;2024-02-26T12:21:38;5.07;;;3.10;;
18596;SDS011;9428;50.950;6.912;2024-02-26T12:24:26;8.85;;;3.45;;
18596;SDS011;9428;50.950;6.912;2024-02-26T12:27:14;5.13;;;3.20;;
18596;SDS011;9428;50.950;6.912;2024-02-26T12:30:02;6.07;;;3.55;;
18596;SDS011;9428;50.950;6.912;2024-02-26T12:32:52;5.72;;;2.95;;
18596;SDS011;9428;50.950;6.912;2024-02-26T12:35:42;5.05;;;3.30;;
18596;SDS011;9428;50.950;6.912;2024-02-26T12:38:33;5.10;;;2.97;;
18596;SDS011;9428;50.950;6.912;2024-02-26T12:41:22;5.60;;;2.90;;
18596;SDS011;9428;50.950;6.912;2024-02-26T12:44:11;4.03;;;3.20;;
18596;SDS011;9428;50.950;6.912;2024-02-26T12:47:00;4.90;;;3.55;;
18596;SDS011;9428;50.950;6.912;2024-02-26T12:49:48;4.85;;;3.00;;
18596;SDS011;9428;50.950;6.912;2024-02-26T12:52:36;3.63;;;2.60;;
18596;SDS011;9428;50.950;6.912;2024-02-26T12:55:25;6.20;;;2.90;;
18596;SDS011;9428;50.950;6.912;2024-02-26T12:58:13;12.27;;;3.40;;
18596;SDS011;9428;50.950;6.912;2024-02-26T13:01:03;6.60;;;3.30;;
18596;SDS011;9428;50.950;6.912;2024-02-26T13:03:51;4.30;;;3.00;;
18596;SDS011;9428;50.950;6.912;2024-02-26T13:06:40;6.38;;;2.70;;
18596;SDS011;9428;50.950;6.912;2024-02-26T13:09:27;3.42;;;2.70;;
18596;SDS011;9428;50.950;6.912;2024-02-26T13:12:15;4.13;;;3.03;;
18596;SDS011;9428;50.950;6.912;2024-02-26T13:15:03;3.90;;;3.08;;
18596;SDS011;9428;50.950;6.912;2024-02-26T13:17:53;5.03;;;2.92;;
18596;SDS011;9428;50.950;6.912;2024-02-26T13:20:41;4.43;;;2.80;;
18596;SDS011;9428;50.950;6.912;2024-02-26T13:23:29;4.80;;;3.17;;
18596;SDS011;9428;50.950;6.912;2024-02-26T13:26:16;4.53;;;3.05;;
18596;SDS011;9428;50.950;6.912;2024-02-26T13:29:03;5.00;;;3.40;;
18596;SDS011;9428;50.950;6.912;2024-02-26T13:31:53;5.43;;;3.47;;
18596;SDS011;9428;50.950;6.912;2024-02-26T13:34:43;5.60;;;3.22;;
18596;SDS011;9428;50.950;6.912;2024-02-26T13:37:31;8.07;;;3.40;;
18596;SDS011;9428;50.950;6.912;2024-02-26T13:40:18;5.43;;;3.50;;
18596;SDS011;9428;50.950;6.912;2024-02-26T13:43:06;5.88;;;3.28;;
18596;SDS011;9428;50.950;6.912;2024-02-26T13:45:54;5.63;;;3.80;;
18596;SDS011;9428;50.950;6.912;2024-02-26T13:48:41;5.55;;;3.20;;
18596;SDS011;9428;50.950;6.912;2024-02-26T13:51:30;5.20;;;3.47;;
18596;SDS011;9428;50.950;6.912;2024-02-26T13:54:20;4.72;;;2.88;;
18596;SDS011;9428;50.950;6.912;2024-02-26T13:57:08;4.63;;;3.55;;
18596;SDS011;9428;50.950;6.912;2024-02-26T13:59:56;4.93;;;3.35;;
18596;SDS011;9428;50.950;6.912;2024-02-26T14:02:43;5.20;;;3.25;;
18596;SDS011;9428;50.950;6.912;2024-02-26T14:05:30;5.07;;;3.53;;
18596;SDS011;9428;50.950;6.912;2024-02-26T14:08:19;4.55;;;3.10;;
18596;SDS011;9428;50.950;6.912;2024-02-26T14:11:07;7.22;;;4.00;;
18596;SDS011;9428;50.950;6.912;2024-02-26T14:13:54;6.75;;;3.33;;
18596;SDS011;9428;50.950;6.912;2024-02-26T14:16:42;5.70;;;3.50;;
18596;SDS011;9428;50.950;6.912;2024-02-26T14:19:29;8.25;;;3.92;;
18596;SDS011;9428;50.950;6.912;2024-02-26T14:22:17;6.55;;;4.47;;
18596;SDS011;9428;50.950;6.912;2024-02-26T14:25:06;7.65;;;4.40;;
18596;SDS011;9428;50.950;6.912;2024-02-26T14:27:54;7.10;;;4.50;;
18596;SDS011;9428;50.950;6.912;2024-02-26T14:30:42;10.95;;;4.90;;
18596;SDS011;9428;50.950;6.912;2024-02-26T14:33:29;7.82;;;4.55;;
18596;SDS011;9428;50.950;6.912;2024-02-26T14:36:17;8.73;;;5.07;;
18596;SDS011;9428;50.950;6.912;2024-02-26T14:39:04;7.20;;;4.65;;
18596;SDS011;9428;50.950;6.912;2024-02-26T14:41:53;7.75;;;4.72;;
18596;SDS011;9428;50.950;6.912;2024-02-26T14:44:40;6.35;;;4.65;;
18596;SDS011;9428;50.950;6.912;2024-02-26T14:47:27;9.20;;;5.60;;
18596;SDS011;9428;50.950;6.912;2024-02-26T14:50:15;8.70;;;5.90;;
18596;SDS011;9428;50.950;6.912;2024-02-26T14:53:02;7.20;;;5.47;;
18596;SDS011;9428;50.950;6.912;2024-02-26T14:55:49;8.90;;;5.38;;
18596;SDS011;9428;50.950;6.912;2024-02-26T14:58:38;10.48;;;5.75;;
18596;SDS011;9428;50.950;6.912;2024-02-26T15:01:26;9.32;;;5.43;;
18596;SDS011;9428;50.950;6.912;2024-02-26T15:04:13;8.05;;;5.88;;
18596;SDS011;9428;50.950;6.912;2024-02-26T15:07:01;9.30;;;5.95;;
18596;SDS011;9428;50.950;6.912;2024-02-26T15:09:48;8.80;;;6.40;;
18596;SDS011;9428;50.950;6.912;2024-02-26T15:12:36;8.75;;;6.00;;
18596;SDS011;9428;50.950;6.912;2024-02-26T15:15:24;13.32;;;6.53;;
18596;SDS011;9428;50.950;6.912;2024-02-26T15:18:12;9.80;;;6.60;;
18596;SDS011;9428;50.950;6.912;2024-02-26T15:21:01;9.45;;;6.32;;
18596;SDS011;9428;50.950;6.912;2024-02-26T15:23:49;8.35;;;5.88;;
18596;SDS011;9428;50.950;6.912;2024-02-26T15:26:40;10.50;;;6.55;;
18596;SDS011;9428;50.950;6.912;2024-02-26T15:29:27;9.10;;;6.32;;
18596;SDS011;9428;50.950;6.912;2024-02-26T15:32:16;12.30;;;6.32;;
18596;SDS011;9428;50.950;6.912;2024-02-26T15:35:04;11.63;;;6.95;;
18596;SDS011;9428;50.950;6.912;2024-02-26T15:37:52;10.23;;;6.53;;
18596;SDS011;9428;50.950;6.912;2024-02-26T15:40:39;10.40;;;6.53;;
18596;SDS011;9428;50.950;6.912;2024-02-26T15:43:26;9.98;;;7.68;;
18596;SDS011;9428;50.950;6.912;2024-02-26T15:46:13;12.30;;;7.80;;
18596;SDS011;9428;50.950;6.912;2024-02-26T15:49:02;10.68;;;7.38;;
18596;SDS011;9428;50.950;6.912;2024-02-26T15:51:50;11.02;;;7.90;;
18596;SDS011;9428;50.950;6.912;2024-02-26T15:54:37;13.40;;;8.80;;
18596;SDS011;9428;50.950;6.912;2024-02-26T15:57:25;14.27;;;8.75;;
18596;SDS011;9428;50.950;6.912;2024-02-26T16:00:13;13.50;;;9.40;;
18596;SDS011;9428;50.950;6.912;2024-02-26T16:03:03;16.25;;;9.30;;
18596;SDS011;9428;50.950;6.912;2024-02-26T16:05:52;16.27;;;9.32;;
18596;SDS011;9428;50.950;6.912;2024-02-26T16:08:39;14.80;;;9.93;;
18596;SDS011;9428;50.950;6.912;2024-02-26T16:11:27;18.33;;;9.23;;
18596;SDS011;9428;50.950;6.912;2024-02-26T16:14:17;16.33;;;9.82;;
18596;SDS011;9428;50.950;6.912;2024-02-26T16:17:22;17.60;;;10.45;;
18596;SDS011;9428;50.950;6.912;2024-02-26T16:20:12;15.00;;;9.77;;
18596;SDS011;9428;50.950;6.912;2024-02-26T16:23:01;13.02;;;8.90;;
18596;SDS011;9428;50.950;6.912;2024-02-26T16:25:52;13.63;;;9.80;;
18596;SDS011;9428;50.950;6.912;2024-02-26T16:28:42;13.40;;;8.57;;
18596;SDS011;9428;50.950;6.912;2024-02-26T16:31:29;12.93;;;8.93;;
18596;SDS011;9428;50.950;6.912;2024-02-26T16:34:17;14.95;;;9.63;;
18596;SDS011;9428;50.950;6.912;2024-02-26T16:37:07;14.20;;;9.88;;
18596;SDS011;9428;50.950;6.912;2024-02-26T16:39:59;16.27;;;11.60;;
18596;SDS011;9428;50.950;6.912;2024-02-26T16:42:50;15.32;;;10.07;;
18596;SDS011;9428;50.950;6.912;2024-02-26T16:45:37;15.57;;;10.45;;
18596;SDS011;9428;50.950;6.912;2024-02-26T16:48:24;11.82;;;9.13;;
18596;SDS011;9428;50.950;6.912;2024-02-26T16:51:12;13.43;;;8.98;;
18596;SDS011;9428;50.950;6.912;2024-02-26T16:53:59;12.20;;;8.23;;
18596;SDS011;9428;50.950;6.912;2024-02-26T16:56:48;10.55;;;8.32;;
18596;SDS011;9428;50.950;6.912;2024-02-26T16:59:37;11.80;;;9.00;;
18596;SDS011;9428;50.950;6.912;2024-02-26T17:02:25;11.73;;;8.35;;
18596;SDS011;9428;50.950;6.912;2024-02-26T17:05:12;11.27;;;8.38;;
18596;SDS011;9428;50.950;6.912;2024-02-26T17:08:00;12.13;;;8.32;;